Time;durP1;ratioP1;P1;durP2;ratioP2;P2;SDS_P1;SDS_P2;PMS_P1;PMS_P2;Temp;Humidity;BMP_temperature;BMP_pressure;BME280_temperature;BME280_humidity;BME280_pressure;Samples;Min_cycle;Max_cycle;Signal;HPM_P1;HPM_P2
2021/06/21 00:01:33;;;;;;;0.60;0.60;;;;;;;;;;5035995;28;20464;-79
2021/06/21 00:03:59;;;;;;;0.67;0.63;;;;;;;;;;5038231;28;20439;-79
2021/06/21 00:06:25;;;;;;;1.10;1.00;;;;;;;;;;5050334;28;20473;-79
2021/06/21 00:08:51;;;;;;;0.80;0.80;;;;;;;;;;5053758;28;20446;-79
2021/06/21 00:11:18;;;;;;;0.70;0.70;;;;;;;;;;5055108;28;20463;-78
2021/06/21 00:13:44;;;;;;;1.03;1.03;;;;;;;;;;5038953;28;20489;-79
2021/06/21 00:16:10;;;;;;;0.67;0.67;;;;;;;;;;5053812;28;20445;-78
2021/06/21 00:18:36;;;;;;;1.00;0.90;;;;;;;;;;5052221;28;20485;-79
2021/06/21 00:21:02;;;;;;;0.70;0.70;;;;;;;;;;5055350;28;20933;-79
2021/06/21 00:23:28;;;;;;;0.77;0.77;;;;;;;;;;5054392;28;20514;-79
2021/06/21 00:25:55;;;;;;;0.70;0.70;;;;;;;;;;5054123;28;20493;-80
2021/06/21 00:28:21;;;;;;;0.73;0.73;;;;;;;;;;5055910;28;20495;-78
2021/06/21 00:30:47;;;;;;;0.80;0.80;;;;;;;;;;5055461;28;20969;-79
2021/06/21 00:33:13;;;;;;;0.60;0.60;;;;;;;;;;5053910;28;20439;-79
2021/06/21 00:35:39;;;;;;;0.63;0.63;;;;;;;;;;5043741;28;20439;-78
2021/06/21 00:38:05;;;;;;;0.83;0.83;;;;;;;;;;5036371;28;20477;-79
2021/06/21 00:40:31;;;;;;;0.73;0.73;;;;;;;;;;5038075;28;20456;-78
2021/06/21 00:42:57;;;;;;;0.70;0.70;;;;;;;;;;5045838;28;20524;-78
2021/06/21 00:45:24;;;;;;;1.83;1.73;;;;;;;;;;5051878;28;20981;-78
2021/06/21 00:47:53;;;;;;;1.00;0.90;;;;;;;;;;5041934;28;20814;-79
2021/06/21 00:50:19;;;;;;;1.00;1.00;;;;;;;;;;5047527;28;20456;-79
2021/06/21 00:52:45;;;;;;;1.10;1.00;;;;;;;;;;5052842;28;20445;-79
2021/06/21 00:55:12;;;;;;;1.00;0.90;;;;;;;;;;5052211;28;20467;-78
2021/06/21 00:57:39;;;;;;;0.70;0.70;;;;;;;;;;5051366;28;20464;-78
2021/06/21 01:00:08;;;;;;;0.70;0.70;;;;;;;;;;5051860;28;20463;-78
2021/06/21 01:02:34;;;;;;;2.67;1.30;;;;;;;;;;5051065;28;20576;-79
2021/06/21 01:05:00;;;;;;;0.70;0.70;;;;;;;;;;5050532;28;20413;-79
2021/06/21 01:07:26;;;;;;;1.17;1.10;;;;;;;;;;5042644;28;20477;-79
2021/06/21 01:09:53;;;;;;;0.87;0.87;;;;;;;;;;5050157;28;21012;-79
2021/06/21 01:12:39;;;;;;;1.00;0.90;;;;;;;;;;5052443;28;20430;-78
2021/06/21 01:15:08;;;;;;;1.00;1.00;;;;;;;;;;5009806;28;20437;-79
2021/06/21 01:17:35;;;;;;;1.23;1.13;;;;;;;;;;5048651;28;20499;-79
2021/06/21 01:20:07;;;;;;;0.70;0.70;;;;;;;;;;5049357;28;20467;-79
2021/06/21 01:22:52;;;;;;;1.07;0.97;;;;;;;;;;5057743;28;20413;-79
2021/06/21 01:25:21;;;;;;;1.30;1.20;;;;;;;;;;5054509;28;20446;-79
2021/06/21 01:27:53;;;;;;;0.97;0.97;;;;;;;;;;5056849;28;20517;-79
2021/06/21 01:30:21;;;;;;;1.50;1.40;;;;;;;;;;5055039;28;20538;-79
2021/06/21 01:32:52;;;;;;;1.13;1.13;;;;;;;;;;5056822;28;20926;-79
2021/06/21 01:35:23;;;;;;;0.60;0.60;;;;;;;;;;5056728;28;20440;-79
2021/06/21 01:37:51;;;;;;;0.70;0.70;;;;;;;;;;5025712;28;20430;-78
2021/06/21 01:40:19;;;;;;;0.80;0.80;;;;;;;;;;5055360;28;20454;-78
2021/06/21 01:42:47;;;;;;;0.80;0.80;;;;;;;;;;5037075;28;20526;-78
2021/06/21 01:45:16;;;;;;;1.07;1.07;;;;;;;;;;5054867;28;20458;-79
2021/06/21 01:47:43;;;;;;;0.80;0.80;;;;;;;;;;5055454;28;20445;-79
2021/06/21 01:50:10;;;;;;;1.00;1.00;;;;;;;;;;5046731;28;21029;-78
2021/06/21 01:52:37;;;;;;;0.90;0.90;;;;;;;;;;5048447;28;20444;-79
2021/06/21 01:55:04;;;;;;;1.47;1.33;;;;;;;;;;5053649;28;20452;-78
2021/06/21 01:57:31;;;;;;;1.93;1.03;;;;;;;;;;5056263;28;20437;-78
2021/06/21 01:59:57;;;;;;;0.87;0.83;;;;;;;;;;5051713;28;20469;-78
2021/06/21 02:02:24;;;;;;;1.80;1.70;;;;;;;;;;5056193;28;20434;-78
2021/06/21 02:04:53;;;;;;;0.80;0.80;;;;;;;;;;5056489;28;20430;-78
2021/06/21 02:07:20;;;;;;;1.10;0.83;;;;;;;;;;5055311;28;20462;-78
2021/06/21 02:09:47;;;;;;;1.00;0.97;;;;;;;;;;5048843;28;20427;-78
2021/06/21 02:12:14;;;;;;;0.83;0.83;;;;;;;;;;5055904;28;20952;-78
2021/06/21 02:14:40;;;;;;;0.80;0.80;;;;;;;;;;5055317;28;20498;-78
2021/06/21 02:17:07;;;;;;;1.00;1.00;;;;;;;;;;5054670;28;20530;-78
2021/06/21 02:19:34;;;;;;;1.00;1.00;;;;;;;;;;5037871;28;20501;-78
2021/06/21 02:22:00;;;;;;;1.17;1.07;;;;;;;;;;5056094;28;20548;-78
2021/06/21 02:24:26;;;;;;;0.70;0.70;;;;;;;;;;5051678;28;20553;-78
2021/06/21 02:26:53;;;;;;;0.70;0.70;;;;;;;;;;5057998;28;20472;-78
2021/06/21 02:29:20;;;;;;;0.90;0.90;;;;;;;;;;5057826;28;20509;-78
2021/06/21 02:31:46;;;;;;;1.00;0.90;;;;;;;;;;5056462;28;20476;-79
2021/06/21 02:34:13;;;;;;;1.43;1.33;;;;;;;;;;5057300;28;21061;-78
2021/06/21 02:36:39;;;;;;;0.80;0.80;;;;;;;;;;5053396;28;20471;-78
2021/06/21 02:39:05;;;;;;;0.80;0.73;;;;;;;;;;5056457;28;20494;-78
2021/06/21 02:41:31;;;;;;;1.00;1.00;;;;;;;;;;5054467;28;20542;-78
2021/06/21 02:43:58;;;;;;;0.80;0.80;;;;;;;;;;5056755;28;20441;-79
2021/06/21 02:46:24;;;;;;;1.20;1.10;;;;;;;;;;5055140;28;20492;-79
2021/06/21 02:48:49;;;;;;;1.03;1.03;;;;;;;;;;5056812;28;20430;-79
2021/06/21 02:51:30;;;;;;;1.33;1.10;;;;;;;;;;5057265;28;20697;-79
2021/06/21 02:54:02;;;;;;;1.27;1.17;;;;;;;;;;5052337;28;20505;-79
2021/06/21 02:56:32;;;;;;;0.70;0.70;;;;;;;;;;5037686;28;20482;-79
2021/06/21 02:59:02;;;;;;;0.90;0.90;;;;;;;;;;5051034;28;20434;-79
2021/06/21 03:01:28;;;;;;;0.90;0.90;;;;;;;;;;5052720;28;20470;-79
2021/06/21 03:03:55;;;;;;;1.20;1.20;;;;;;;;;;5052645;28;20440;-78
2021/06/21 03:06:23;;;;;;;0.77;0.77;;;;;;;;;;5050821;28;20480;-80
2021/06/21 03:08:50;;;;;;;1.00;1.00;;;;;;;;;;5047898;28;20434;-79
2021/06/21 03:11:16;;;;;;;1.33;1.00;;;;;;;;;;5037815;28;20454;-79
2021/06/21 03:13:46;;;;;;;0.90;0.90;;;;;;;;;;5054575;28;20438;-79
2021/06/21 03:16:12;;;;;;;0.97;0.97;;;;;;;;;;5056647;28;20413;-79
2021/06/21 03:18:39;;;;;;;0.90;0.90;;;;;;;;;;5047721;28;20438;-79
2021/06/21 03:21:05;;;;;;;0.70;0.63;;;;;;;;;;5056358;28;20464;-79
2021/06/21 03:23:32;;;;;;;1.10;1.00;;;;;;;;;;5047663;28;20443;-79
2021/06/21 03:25:59;;;;;;;0.93;0.93;;;;;;;;;;5052964;28;20827;-79
2021/06/21 03:28:27;;;;;;;0.70;0.70;;;;;;;;;;5056305;28;20520;-78
2021/06/21 03:30:56;;;;;;;1.40;1.30;;;;;;;;;;5054754;28;20539;-77
2021/06/21 03:33:22;;;;;;;0.83;0.83;;;;;;;;;;5053904;28;20430;-78
2021/06/21 03:35:48;;;;;;;0.80;0.80;;;;;;;;;;5044480;28;20770;-78
2021/06/21 03:38:19;;;;;;;1.43;0.93;;;;;;;;;;5050040;28;20437;-77
2021/06/21 03:40:45;;;;;;;1.20;1.10;;;;;;;;;;5051208;28;20463;-77
2021/06/21 03:43:12;;;;;;;1.07;1.07;;;;;;;;;;5049858;28;20943;-78
2021/06/21 03:45:38;;;;;;;1.23;1.13;;;;;;;;;;5051123;28;20473;-77
2021/06/21 03:48:04;;;;;;;0.90;0.90;;;;;;;;;;5052470;28;20432;-77
2021/06/21 03:50:30;;;;;;;1.00;1.00;;;;;;;;;;5050790;28;20449;-78
2021/06/21 03:52:56;;;;;;;0.80;0.80;;;;;;;;;;5051830;28;20436;-78
2021/06/21 03:55:22;;;;;;;1.10;1.00;;;;;;;;;;5050480;28;20466;-78
2021/06/21 03:57:50;;;;;;;1.27;1.27;;;;;;;;;;5051694;28;20432;-78
2021/06/21 04:00:17;;;;;;;0.67;0.67;;;;;;;;;;5050747;28;20450;-77
2021/06/21 04:02:43;;;;;;;0.73;0.73;;;;;;;;;;5049277;28;20529;-77
2021/06/21 04:05:10;;;;;;;1.20;1.10;;;;;;;;;;5052270;28;20424;-77
2021/06/21 04:07:36;;;;;;;1.53;1.40;;;;;;;;;;5049002;28;21177;-77
2021/06/21 04:10:04;;;;;;;1.00;1.00;;;;;;;;;;5051891;28;20428;-77
2021/06/21 04:12:31;;;;;;;0.60;0.60;;;;;;;;;;5040947;28;20639;-77
2021/06/21 04:14:57;;;;;;;1.37;1.27;;;;;;;;;;5040424;28;20470;-77
2021/06/21 04:17:23;;;;;;;1.53;1.43;;;;;;;;;;5050584;28;20443;-78
2021/06/21 04:19:50;;;;;;;1.17;1.07;;;;;;;;;;5044090;28;20447;-77
2021/06/21 04:22:16;;;;;;;0.90;0.90;;;;;;;;;;5050863;28;20414;-77
2021/06/21 04:24:42;;;;;;;1.30;0.90;;;;;;;;;;5050675;28;20446;-76
2021/06/21 04:27:08;;;;;;;1.57;1.20;;;;;;;;;;5049631;28;20467;-77
2021/06/21 04:29:34;;;;;;;1.80;1.70;;;;;;;;;;5050173;28;20403;-75
2021/06/21 04:32:00;;;;;;;1.93;1.83;;;;;;;;;;5049376;28;20456;-75
2021/06/21 04:34:26;;;;;;;1.33;1.20;;;;;;;;;;5050029;28;20907;-75
2021/06/21 04:36:52;;;;;;;2.10;1.80;;;;;;;;;;5048587;28;20462;-75
2021/06/21 04:39:18;;;;;;;1.00;1.00;;;;;;;;;;5050257;28;20436;-75
2021/06/21 04:41:44;;;;;;;1.80;1.60;;;;;;;;;;5043040;28;20456;-74
2021/06/21 04:44:10;;;;;;;1.57;1.47;;;;;;;;;;5051404;28;20413;-75
2021/06/21 04:46:37;;;;;;;2.33;2.23;;;;;;;;;;5048886;28;20470;-75
2021/06/21 04:49:05;;;;;;;2.20;1.47;;;;;;;;;;5045242;28;20781;-75
2021/06/21 04:51:32;;;;;;;6.00;1.70;;;;;;;;;;5051452;28;20448;-74
2021/06/21 04:53:58;;;;;;;2.20;1.47;;;;;;;;;;5052974;28;20437;-74
2021/06/21 04:56:24;;;;;;;2.07;1.97;;;;;;;;;;5045120;28;20579;-74
2021/06/21 04:58:50;;;;;;;2.60;2.17;;;;;;;;;;5023956;28;20446;-75
2021/06/21 05:01:16;;;;;;;1.57;1.47;;;;;;;;;;5054949;28;20827;-74
2021/06/21 05:03:42;;;;;;;2.03;1.73;;;;;;;;;;5053971;28;20799;-74
2021/06/21 05:06:08;;;;;;;2.07;1.70;;;;;;;;;;5054225;28;20997;-75
2021/06/21 05:08:34;;;;;;;1.80;1.70;;;;;;;;;;5053372;28;20431;-74
2021/06/21 05:11:01;;;;;;;1.87;1.47;;;;;;;;;;5054382;28;20517;-74
2021/06/21 05:13:26;;;;;;;1.97;1.80;;;;;;;;;;5055209;28;20415;-74
2021/06/21 05:15:52;;;;;;;2.17;2.07;;;;;;;;;;5054707;28;20415;-74
2021/06/21 05:18:18;;;;;;;1.40;1.30;;;;;;;;;;5055122;28;20408;-74
2021/06/21 05:20:44;;;;;;;2.17;1.80;;;;;;;;;;5037247;28;20968;-74
2021/06/21 05:23:10;;;;;;;1.10;1.00;;;;;;;;;;5055003;28;20419;-75
2021/06/21 05:25:37;;;;;;;1.37;1.27;;;;;;;;;;5036949;28;20418;-74
2021/06/21 05:28:03;;;;;;;1.47;1.37;;;;;;;;;;5054769;28;20405;-74
2021/06/21 05:30:29;;;;;;;1.40;1.30;;;;;;;;;;5036465;28;20546;-75
2021/06/21 05:32:55;;;;;;;2.17;2.07;;;;;;;;;;5054102;28;20797;-74
2021/06/21 05:35:21;;;;;;;1.73;1.63;;;;;;;;;;5054871;28;20400;-74
2021/06/21 05:37:48;;;;;;;1.63;1.37;;;;;;;;;;5054392;28;20907;-74
2021/06/21 05:40:15;;;;;;;1.43;1.33;;;;;;;;;;5054747;28;20587;-75
2021/06/21 05:42:41;;;;;;;2.33;2.23;;;;;;;;;;5054548;28;20424;-74
2021/06/21 05:45:07;;;;;;;1.30;1.17;;;;;;;;;;5054709;28;20922;-74
2021/06/21 05:47:33;;;;;;;1.70;1.60;;;;;;;;;;5054172;28;21009;-74
2021/06/21 05:49:59;;;;;;;1.50;1.40;;;;;;;;;;5054310;28;20424;-74
2021/06/21 05:52:25;;;;;;;1.33;1.23;;;;;;;;;;5054339;28;20486;-74
2021/06/21 05:54:51;;;;;;;3.33;1.97;;;;;;;;;;5054468;28;20407;-74
2021/06/21 05:57:17;;;;;;;1.23;1.20;;;;;;;;;;5053167;28;20803;-74
2021/06/21 05:59:43;;;;;;;1.40;1.30;;;;;;;;;;5053760;28;20411;-74
2021/06/21 06:02:09;;;;;;;1.93;1.80;;;;;;;;;;5050218;28;20446;-74
2021/06/21 06:04:35;;;;;;;1.40;1.30;;;;;;;;;;5054083;28;20805;-74
2021/06/21 06:07:01;;;;;;;1.63;1.53;;;;;;;;;;5047435;28;20461;-74
2021/06/21 06:09:27;;;;;;;1.37;1.27;;;;;;;;;;5033128;28;20406;-74
2021/06/21 06:11:53;;;;;;;1.40;1.30;;;;;;;;;;5034021;28;20433;-74
2021/06/21 06:14:19;;;;;;;1.53;1.43;;;;;;;;;;5035436;28;20418;-74
2021/06/21 06:16:45;;;;;;;1.30;1.00;;;;;;;;;;5053272;28;20426;-74
2021/06/21 06:19:11;;;;;;;1.00;1.00;;;;;;;;;;5053910;28;20447;-74
2021/06/21 06:21:37;;;;;;;0.80;0.80;;;;;;;;;;5053767;28;20433;-74
2021/06/21 06:24:03;;;;;;;1.00;1.00;;;;;;;;;;5053892;28;20407;-74
2021/06/21 06:26:29;;;;;;;1.23;1.00;;;;;;;;;;5053509;28;20511;-73
2021/06/21 06:28:56;;;;;;;1.27;1.17;;;;;;;;;;5052941;28;20424;-74
2021/06/21 06:31:22;;;;;;;0.70;0.70;;;;;;;;;;5052072;28;20532;-74
2021/06/21 06:33:48;;;;;;;0.83;0.83;;;;;;;;;;5053750;28;20413;-74
2021/06/21 06:36:14;;;;;;;0.93;0.93;;;;;;;;;;5053374;28;20428;-74
2021/06/21 06:38:41;;;;;;;0.80;0.80;;;;;;;;;;5053725;28;20406;-74
2021/06/21 06:41:07;;;;;;;0.60;0.50;;;;;;;;;;5046167;28;20442;-74
2021/06/21 06:43:33;;;;;;;0.70;0.70;;;;;;;;;;5043168;28;20962;-74
2021/06/21 06:45:59;;;;;;;0.60;0.60;;;;;;;;;;5052883;28;20485;-74
2021/06/21 06:48:25;;;;;;;0.70;0.60;;;;;;;;;;5053504;28;20412;-74
2021/06/21 06:50:51;;;;;;;0.60;0.57;;;;;;;;;;5035372;28;20445;-74
2021/06/21 06:53:25;;;;;;;0.70;0.60;;;;;;;;;;5052886;28;20451;-75
2021/06/21 06:58:36;;;;;;;0.60;0.50;;;;;;;;;;5052443;28;21005;-74
2021/06/21 07:01:02;;;;;;;0.60;0.60;;;;;;;;;;5052620;28;20532;-75
2021/06/21 07:03:29;;;;;;;0.60;0.53;;;;;;;;;;5052816;28;20412;-75
2021/06/21 07:05:55;;;;;;;0.67;0.67;;;;;;;;;;5052749;28;21061;-74
2021/06/21 07:08:21;;;;;;;0.90;0.90;;;;;;;;;;5044439;28;20514;-74
2021/06/21 07:10:47;;;;;;;0.60;0.50;;;;;;;;;;5033155;28;20927;-75
2021/06/21 07:13:13;;;;;;;0.67;0.67;;;;;;;;;;5033095;28;20416;-75
2021/06/21 07:15:38;;;;;;;0.60;0.60;;;;;;;;;;5032327;28;20410;-74
2021/06/21 07:18:04;;;;;;;0.70;0.60;;;;;;;;;;5032957;28;20422;-74
2021/06/21 07:20:30;;;;;;;0.70;0.60;;;;;;;;;;5015166;28;20502;-74
2021/06/21 07:22:56;;;;;;;0.60;0.50;;;;;;;;;;5032934;28;20454;-74
2021/06/21 07:25:22;;;;;;;0.60;0.60;;;;;;;;;;5032875;28;20401;-74
2021/06/21 07:27:48;;;;;;;1.60;1.10;;;;;;;;;;5042876;28;20844;-74
2021/06/21 07:30:15;;;;;;;2.03;1.83;;;;;;;;;;5052046;28;20512;-75
2021/06/21 07:32:41;;;;;;;3.20;2.90;;;;;;;;;;5047833;28;20435;-73
2021/06/21 07:35:07;;;;;;;2.73;2.53;;;;;;;;;;5032725;28;20482;-74
2021/06/21 07:37:33;;;;;;;2.87;2.53;;;;;;;;;;5032362;28;20411;-75
2021/06/21 07:39:59;;;;;;;2.13;2.00;;;;;;;;;;5015023;28;20443;-75
2021/06/21 07:42:25;;;;;;;2.40;2.20;;;;;;;;;;5035711;28;20439;-74
2021/06/21 07:44:51;;;;;;;1.80;1.70;;;;;;;;;;5052161;28;20903;-76
2021/06/21 07:47:17;;;;;;;5.47;2.50;;;;;;;;;;5052009;28;20496;-74
2021/06/21 07:49:43;;;;;;;2.53;2.33;;;;;;;;;;5052303;28;20414;-74
2021/06/21 07:52:09;;;;;;;2.70;1.60;;;;;;;;;;5052389;28;20402;-76
2021/06/21 07:54:35;;;;;;;2.87;1.50;;;;;;;;;;5052337;28;20415;-75
2021/06/21 07:57:01;;;;;;;2.60;1.90;;;;;;;;;;5050993;28;20404;-75
2021/06/21 07:59:27;;;;;;;1.57;1.47;;;;;;;;;;5047263;28;20421;-72
2021/06/21 08:01:53;;;;;;;3.93;2.67;;;;;;;;;;5052107;28;20443;-75
2021/06/21 08:04:18;;;;;;;2.53;1.80;;;;;;;;;;5051179;28;20445;-75
2021/06/21 08:06:44;;;;;;;2.07;1.97;;;;;;;;;;5051740;28;20532;-75
2021/06/21 08:09:10;;;;;;;2.77;2.57;;;;;;;;;;5051399;28;20424;-75
2021/06/21 08:11:36;;;;;;;2.73;1.67;;;;;;;;;;5028879;28;20453;-75
2021/06/21 08:14:02;;;;;;;2.57;2.37;;;;;;;;;;5049416;28;20416;-75
2021/06/21 08:16:29;;;;;;;1.53;1.43;;;;;;;;;;5051264;28;20796;-75
2021/06/21 08:18:55;;;;;;;2.20;2.00;;;;;;;;;;5050754;28;20440;-75
2021/06/21 08:21:21;;;;;;;2.37;1.77;;;;;;;;;;5051622;28;20440;-76
2021/06/21 08:23:47;;;;;;;2.50;2.00;;;;;;;;;;5051995;28;20500;-75
2021/06/21 08:26:13;;;;;;;1.90;1.67;;;;;;;;;;5050442;28;20460;-75
2021/06/21 08:28:39;;;;;;;1.40;1.30;;;;;;;;;;5050448;28;20487;-76
2021/06/21 08:31:05;;;;;;;2.07;1.97;;;;;;;;;;5051171;28;20452;-75
2021/06/21 08:33:31;;;;;;;1.20;1.10;;;;;;;;;;5051786;28;20404;-75
2021/06/21 08:35:57;;;;;;;4.97;1.73;;;;;;;;;;5051286;28;20455;-75
2021/06/21 08:38:23;;;;;;;1.73;1.33;;;;;;;;;;5051662;28;20418;-74
2021/06/21 08:40:49;;;;;;;1.30;1.20;;;;;;;;;;5051450;28;20436;-73
2021/06/21 08:43:15;;;;;;;1.70;1.60;;;;;;;;;;5051516;28;20490;-75
2021/06/21 08:45:41;;;;;;;1.20;1.10;;;;;;;;;;5051151;28;20416;-76
2021/06/21 08:48:08;;;;;;;1.43;1.33;;;;;;;;;;5051565;28;20411;-75
2021/06/21 08:50:35;;;;;;;1.23;1.13;;;;;;;;;;5033642;28;20440;-75
2021/06/21 08:53:01;;;;;;;1.30;1.00;;;;;;;;;;5051360;28;20937;-74
2021/06/21 08:55:27;;;;;;;1.83;1.73;;;;;;;;;;5050505;28;20974;-74
2021/06/21 08:57:53;;;;;;;1.60;1.50;;;;;;;;;;5051073;28;20432;-75
2021/06/21 09:00:22;;;;;;;1.00;1.00;;;;;;;;;;5050389;28;20470;-74
2021/06/21 09:02:48;;;;;;;1.60;1.50;;;;;;;;;;5051381;28;20918;-75
2021/06/21 09:05:14;;;;;;;1.23;1.13;;;;;;;;;;5050367;28;20415;-72
2021/06/21 09:07:40;;;;;;;0.80;0.80;;;;;;;;;;5050319;28;20547;-74
2021/06/21 09:10:20;;;;;;;0.73;0.73;;;;;;;;;;5031878;28;20448;-74
2021/06/21 09:12:46;;;;;;;0.70;0.70;;;;;;;;;;5050995;28;20439;-75
2021/06/21 09:15:12;;;;;;;1.10;0.80;;;;;;;;;;5049556;28;20406;-75
2021/06/21 09:17:39;;;;;;;0.60;0.50;;;;;;;;;;5050146;28;20443;-74
2021/06/21 09:20:06;;;;;;;0.80;0.63;;;;;;;;;;5050887;28;20440;-75
2021/06/21 09:22:40;;;;;;;1.00;1.00;;;;;;;;;;5051209;28;20813;-75
2021/06/21 09:25:10;;;;;;;0.60;0.50;;;;;;;;;;5051015;28;20427;-75
2021/06/21 09:27:39;;;;;;;0.80;0.80;;;;;;;;;;5025330;28;20547;-74
2021/06/21 09:30:07;;;;;;;0.80;0.80;;;;;;;;;;5050766;28;20857;-75
2021/06/21 09:32:49;;;;;;;0.60;0.60;;;;;;;;;;5050303;22;20502;-74
2021/06/21 09:35:31;;;;;;;0.80;0.80;;;;;;;;;;5050893;28;20427;-75
2021/06/21 09:38:26;;;;;;;0.60;0.50;;;;;;;;;;5043511;28;20510;-75
2021/06/21 09:40:53;;;;;;;0.70;0.50;;;;;;;;;;5045856;28;20505;-75
2021/06/21 09:43:22;;;;;;;0.60;0.57;;;;;;;;;;5038772;28;20520;-74
2021/06/21 09:46:01;;;;;;;1.17;0.77;;;;;;;;;;5033985;28;20974;-75
2021/06/21 09:48:53;;;;;;;0.60;0.60;;;;;;;;;;5033205;28;20425;-74
2021/06/21 09:51:21;;;;;;;1.23;1.13;;;;;;;;;;5032838;28;20417;-74
2021/06/21 09:53:56;;;;;;;0.60;0.50;;;;;;;;;;5034008;28;20440;-75
2021/06/21 09:56:39;;;;;;;1.00;0.60;;;;;;;;;;5034309;28;20420;-76
2021/06/21 09:59:18;;;;;;;0.60;0.60;;;;;;;;;;5033946;28;20893;-76
2021/06/21 10:01:44;;;;;;;0.60;0.50;;;;;;;;;;5034508;28;20426;-74
2021/06/21 10:04:26;;;;;;;0.60;0.50;;;;;;;;;;5034216;28;20412;-75
2021/06/21 10:06:53;;;;;;;0.60;0.57;;;;;;;;;;5034002;28;20467;-76
2021/06/21 10:09:18;;;;;;;0.60;0.60;;;;;;;;;;5034454;28;20455;-75
2021/06/21 10:11:45;;;;;;;0.60;0.60;;;;;;;;;;5034046;28;20433;-75
2021/06/21 10:14:12;;;;;;;0.60;0.53;;;;;;;;;;5035872;28;20445;-76
2021/06/21 10:16:39;;;;;;;0.60;0.50;;;;;;;;;;5042886;28;20427;-77
2021/06/21 10:19:05;;;;;;;0.60;0.50;;;;;;;;;;5042231;28;20442;-75
2021/06/21 10:21:32;;;;;;;0.60;0.50;;;;;;;;;;5033030;28;21005;-77
2021/06/21 10:23:58;;;;;;;0.63;0.57;;;;;;;;;;5034102;28;20441;-76
2021/06/21 10:26:24;;;;;;;0.60;0.50;;;;;;;;;;5033720;28;20455;-76
2021/06/21 10:28:51;;;;;;;0.60;0.50;;;;;;;;;;5019074;28;20509;-75
2021/06/21 10:31:20;;;;;;;0.70;0.60;;;;;;;;;;5014082;28;20455;-75
2021/06/21 10:33:46;;;;;;;0.60;0.50;;;;;;;;;;5030451;28;20781;-75
2021/06/21 10:36:12;;;;;;;0.60;0.50;;;;;;;;;;5033521;28;20413;-75
2021/06/21 10:38:38;;;;;;;1.20;0.80;;;;;;;;;;5033858;28;20416;-76
2021/06/21 10:41:07;;;;;;;0.80;0.80;;;;;;;;;;5030500;28;20442;-74
2021/06/21 10:43:53;;;;;;;0.60;0.50;;;;;;;;;;5013752;28;20397;-77
2021/06/21 10:46:19;;;;;;;0.60;0.50;;;;;;;;;;5027187;28;20531;-76
2021/06/21 10:49:01;;;;;;;0.67;0.57;;;;;;;;;;5031908;28;20437;-75
2021/06/21 10:51:38;;;;;;;0.60;0.57;;;;;;;;;;5033724;28;20450;-76
2021/06/21 10:54:05;;;;;;;0.60;0.60;;;;;;;;;;5033520;28;20421;-75
2021/06/21 10:56:43;;;;;;;0.60;0.60;;;;;;;;;;5032476;28;20425;-76
2021/06/21 10:59:13;;;;;;;0.60;0.60;;;;;;;;;;5033446;28;20497;-76
2021/06/21 11:01:47;;;;;;;0.60;0.50;;;;;;;;;;5033363;28;20425;-76
2021/06/21 11:04:31;;;;;;;0.77;0.60;;;;;;;;;;5027211;28;20437;-75
2021/06/21 11:07:17;;;;;;;0.70;0.60;;;;;;;;;;5013071;28;20468;-75
2021/06/21 11:09:44;;;;;;;0.60;0.60;;;;;;;;;;5024546;28;20933;-75
2021/06/21 11:12:19;;;;;;;0.60;0.50;;;;;;;;;;5033191;28;20902;-75
2021/06/21 11:15:06;;;;;;;0.70;0.60;;;;;;;;;;5033184;28;20781;-75
2021/06/21 11:17:34;;;;;;;0.60;0.60;;;;;;;;;;5032979;28;20387;-75
2021/06/21 11:20:18;;;;;;;0.60;0.50;;;;;;;;;;5032847;28;20398;-77
2021/06/21 11:22:46;;;;;;;0.60;0.50;;;;;;;;;;5042253;28;20415;-76
2021/06/21 11:25:32;;;;;;;0.60;0.50;;;;;;;;;;5053149;28;20408;-76
2021/06/21 11:27:59;;;;;;;0.60;0.60;;;;;;;;;;5036617;28;20456;-76
2021/06/21 11:30:26;;;;;;;0.60;0.50;;;;;;;;;;5032103;28;20919;-76
2021/06/21 11:32:53;;;;;;;0.60;0.60;;;;;;;;;;5026846;28;20816;-76
2021/06/21 11:35:39;;;;;;;0.70;0.60;;;;;;;;;;5032581;28;20417;-76
2021/06/21 11:38:24;;;;;;;0.60;0.50;;;;;;;;;;5031114;28;20440;-75
2021/06/21 11:41:10;;;;;;;0.60;0.57;;;;;;;;;;5012845;28;20434;-76
2021/06/21 11:43:49;;;;;;;0.77;0.60;;;;;;;;;;5017208;28;20424;-74
2021/06/21 11:46:34;;;;;;;0.60;0.50;;;;;;;;;;5031864;28;20461;-75
2021/06/21 11:49:29;;;;;;;0.60;0.50;;;;;;;;;;5032313;28;20414;-74
2021/06/21 11:51:59;;;;;;;0.60;0.60;;;;;;;;;;5019468;28;21017;-75
2021/06/21 11:54:25;;;;;;;0.60;0.60;;;;;;;;;;5032362;28;20462;-75
2021/06/21 11:56:52;;;;;;;0.60;0.60;;;;;;;;;;5029901;28;20956;-75
2021/06/21 11:59:28;;;;;;;0.60;0.50;;;;;;;;;;5032305;28;20791;-74
2021/06/21 12:02:01;;;;;;;0.60;0.50;;;;;;;;;;5032005;28;20913;-74
2021/06/21 12:04:28;;;;;;;0.60;0.50;;;;;;;;;;5031852;28;20425;-76
2021/06/21 12:06:54;;;;;;;0.60;0.50;;;;;;;;;;5031831;28;20465;-76
2021/06/21 12:09:20;;;;;;;0.60;0.50;;;;;;;;;;5031908;28;20424;-75
2021/06/21 12:11:51;;;;;;;0.60;0.60;;;;;;;;;;5043165;28;20407;-75
2021/06/21 12:14:19;;;;;;;0.80;0.60;;;;;;;;;;5049603;28;20411;-75
2021/06/21 12:16:45;;;;;;;0.60;0.60;;;;;;;;;;5031476;28;20504;-74
2021/06/21 12:19:11;;;;;;;0.80;0.60;;;;;;;;;;5030726;28;20480;-75
2021/06/21 12:21:41;;;;;;;0.70;0.60;;;;;;;;;;5032289;28;20995;-76
2021/06/21 12:24:16;;;;;;;0.70;0.60;;;;;;;;;;5030576;28;20429;-75
2021/06/21 12:26:43;;;;;;;0.60;0.50;;;;;;;;;;5047004;28;20460;-75
2021/06/21 12:29:19;;;;;;;0.60;0.50;;;;;;;;;;5025066;28;20433;-76
2021/06/21 12:32:02;;;;;;;0.60;0.50;;;;;;;;;;5012350;28;20445;-76
2021/06/21 12:34:46;;;;;;;0.60;0.50;;;;;;;;;;5031546;28;20419;-77
2021/06/21 12:37:12;;;;;;;0.70;0.60;;;;;;;;;;5033199;28;20420;-77
2021/06/21 12:39:38;;;;;;;0.70;0.60;;;;;;;;;;5051872;28;20408;-76
2021/06/21 12:42:08;;;;;;;0.60;0.50;;;;;;;;;;5039447;28;20445;-77
2021/06/21 12:44:34;;;;;;;0.60;0.50;;;;;;;;;;5012468;28;20933;-77
2021/06/21 12:47:00;;;;;;;0.60;0.60;;;;;;;;;;5028469;28;20475;-77
2021/06/21 12:49:26;;;;;;;0.60;0.53;;;;;;;;;;5030546;28;20410;-76
2021/06/21 12:51:52;;;;;;;0.60;0.60;;;;;;;;;;5032622;28;20483;-75
2021/06/21 12:54:20;;;;;;;0.60;0.60;;;;;;;;;;5050372;28;20424;-75
2021/06/21 12:56:50;;;;;;;0.73;0.60;;;;;;;;;;5031054;28;20931;-75
2021/06/21 12:59:27;;;;;;;0.60;0.60;;;;;;;;;;5033657;28;20428;-75
2021/06/21 13:01:53;;;;;;;0.70;0.60;;;;;;;;;;5032102;28;20452;-74
2021/06/21 13:04:19;;;;;;;0.70;0.60;;;;;;;;;;5031187;28;20435;-75
2021/06/21 13:06:47;;;;;;;0.60;0.60;;;;;;;;;;5031159;28;20547;-75
2021/06/21 13:09:14;;;;;;;0.60;0.60;;;;;;;;;;5025245;28;20453;-75
2021/06/21 13:11:50;;;;;;;0.70;0.60;;;;;;;;;;5011673;28;20425;-75
2021/06/21 13:14:17;;;;;;;0.70;0.70;;;;;;;;;;5015500;28;20409;-75
2021/06/21 13:16:43;;;;;;;1.07;0.70;;;;;;;;;;5016632;28;20633;-75
2021/06/21 13:19:13;;;;;;;0.60;0.50;;;;;;;;;;5035157;28;20508;-75
2021/06/21 13:21:50;;;;;;;1.10;1.10;;;;;;;;;;5034839;28;20428;-75
2021/06/21 13:24:35;;;;;;;0.80;0.80;;;;;;;;;;5016787;28;20425;-74
2021/06/21 13:27:01;;;;;;;0.80;0.60;;;;;;;;;;5034448;28;20464;-75
2021/06/21 13:29:29;;;;;;;0.63;0.63;;;;;;;;;;5035161;28;20409;-75
2021/06/21 13:31:56;;;;;;;0.90;0.70;;;;;;;;;;5033662;28;20487;-76
2021/06/21 13:34:40;;;;;;;0.77;0.77;;;;;;;;;;5034704;28;20441;-76
2021/06/21 13:37:08;;;;;;;0.70;0.60;;;;;;;;;;5031728;28;20556;-76
2021/06/21 13:39:35;;;;;;;1.30;0.67;;;;;;;;;;5027699;28;20400;-76
2021/06/21 13:42:02;;;;;;;0.70;0.70;;;;;;;;;;5035177;28;20541;-76
2021/06/21 13:44:28;;;;;;;0.80;0.60;;;;;;;;;;5032773;28;20453;-76
2021/06/21 13:46:55;;;;;;;0.60;0.60;;;;;;;;;;5053239;28;20455;-76
2021/06/21 13:49:22;;;;;;;0.80;0.80;;;;;;;;;;5054224;28;20405;-76
2021/06/21 13:51:53;;;;;;;1.00;0.70;;;;;;;;;;5034572;28;20807;-76
2021/06/21 13:54:19;;;;;;;0.60;0.60;;;;;;;;;;5034935;28;20408;-76
2021/06/21 13:56:45;;;;;;;0.60;0.60;;;;;;;;;;5053193;28;20421;-76
2021/06/21 13:59:12;;;;;;;0.70;0.70;;;;;;;;;;5054722;28;20409;-76
2021/06/21 14:01:38;;;;;;;0.77;0.77;;;;;;;;;;5038326;28;20461;-76
2021/06/21 14:04:05;;;;;;;0.60;0.60;;;;;;;;;;5037669;28;20532;-76
2021/06/21 14:06:32;;;;;;;0.70;0.70;;;;;;;;;;5045501;28;20916;-76
2021/06/21 14:09:03;;;;;;;0.60;0.50;;;;;;;;;;5033177;28;20498;-76
2021/06/21 14:11:29;;;;;;;0.67;0.67;;;;;;;;;;5033191;28;20439;-76
2021/06/21 14:13:55;;;;;;;0.70;0.70;;;;;;;;;;5034341;28;20411;-76
2021/06/21 14:16:24;;;;;;;0.60;0.60;;;;;;;;;;5032317;28;20948;-76
2021/06/21 14:18:51;;;;;;;0.73;0.70;;;;;;;;;;5037941;28;20472;-76
2021/06/21 14:21:17;;;;;;;0.70;0.70;;;;;;;;;;5052742;28;20535;-76
2021/06/21 14:23:46;;;;;;;0.60;0.60;;;;;;;;;;5046145;28;20452;-76
2021/06/21 14:26:12;;;;;;;0.70;0.70;;;;;;;;;;5032099;28;20467;-76
2021/06/21 14:28:38;;;;;;;0.73;0.70;;;;;;;;;;5034060;28;20465;-76
2021/06/21 14:31:04;;;;;;;0.60;0.60;;;;;;;;;;5034738;28;20474;-76
2021/06/21 14:33:30;;;;;;;0.60;0.50;;;;;;;;;;5040906;28;20432;-76
2021/06/21 14:35:57;;;;;;;0.60;0.60;;;;;;;;;;5032688;28;20436;-76
2021/06/21 14:38:23;;;;;;;0.70;0.60;;;;;;;;;;5033734;28;20446;-76
2021/06/21 14:40:49;;;;;;;0.60;0.60;;;;;;;;;;5033821;28;20454;-76
2021/06/21 14:43:17;;;;;;;1.60;0.70;;;;;;;;;;5033656;28;20426;-76
2021/06/21 14:45:43;;;;;;;0.70;0.70;;;;;;;;;;5033350;28;20412;-76
2021/06/21 14:48:09;;;;;;;0.70;0.60;;;;;;;;;;5037583;28;20483;-76
2021/06/21 14:50:36;;;;;;;0.60;0.60;;;;;;;;;;5050131;28;20414;-76
2021/06/21 14:53:06;;;;;;;0.60;0.50;;;;;;;;;;5039426;28;21135;-76